sensor_id;sensor_type;location;lat;lon;timestamp;pressure;altitude;pressure_sealevel;temperature;humidity
38718;BME280;24468;52.128;9.278;2023-01-19T00:00:01;99174.09;;;0.93;100.00
38718;BME280;24468;52.128;9.278;2023-01-19T00:02:27;99171.59;;;0.86;100.00
38718;BME280;24468;52.128;9.278;2023-01-19T00:04:52;99176.75;;;0.93;100.00
38718;BME280;24468;52.128;9.278;2023-01-19T00:07:18;99174.63;;;1.05;100.00
38718;BME280;24468;52.128;9.278;2023-01-19T00:09:43;99176.78;;;0.91;100.00
38718;BME280;24468;52.128;9.278;2023-01-19T00:12:09;99183.81;;;0.94;100.00
38718;BME280;24468;52.128;9.278;2023-01-19T00:14:34;99156.59;;;0.85;100.00
38718;BME280;24468;52.128;9.278;2023-01-19T00:17:00;99160.03;;;0.89;100.00
38718;BME280;24468;52.128;9.278;2023-01-19T00:19:27;99165.38;;;0.87;100.00
38718;BME280;24468;52.128;9.278;2023-01-19T00:21:52;99163.72;;;0.83;100.00
38718;BME280;24468;52.128;9.278;2023-01-19T00:24:18;99173.47;;;0.83;100.00
38718;BME280;24468;52.128;9.278;2023-01-19T00:26:44;99166.75;;;1.02;100.00
38718;BME280;24468;52.128;9.278;2023-01-19T00:29:10;99171.50;;;0.91;100.00
38718;BME280;24468;52.128;9.278;2023-01-19T00:31:37;99189.50;;;0.80;100.00
38718;BME280;24468;52.128;9.278;2023-01-19T00:34:04;99182.59;;;1.05;100.00
38718;BME280;24468;52.128;9.278;2023-01-19T00:36:30;99184.03;;;1.17;100.00
38718;BME280;24468;52.128;9.278;2023-01-19T00:38:56;99189.13;;;0.94;100.00
38718;BME280;24468;52.128;9.278;2023-01-19T00:41:21;99178.16;;;1.06;100.00
38718;BME280;24468;52.128;9.278;2023-01-19T00:44:07;99183.44;;;1.07;100.00
38718;BME280;24468;52.128;9.278;2023-01-19T00:46:33;99181.66;;;1.06;100.00
38718;BME280;24468;52.128;9.278;2023-01-19T00:48:58;99189.31;;;1.19;100.00
38718;BME280;24468;52.128;9.278;2023-01-19T00:51:24;99190.19;;;1.19;100.00
38718;BME280;24468;52.128;9.278;2023-01-19T00:53:50;99190.19;;;1.19;100.00
38718;BME280;24468;52.128;9.278;2023-01-19T00:56:16;99186.19;;;1.04;100.00
38718;BME280;24468;52.128;9.278;2023-01-19T00:58:42;99189.22;;;1.22;100.00
38718;BME280;24468;52.128;9.278;2023-01-19T01:01:09;99190.94;;;1.24;100.00
38718;BME280;24468;52.128;9.278;2023-01-19T01:03:35;99180.03;;;1.33;100.00
38718;BME280;24468;52.128;9.278;2023-01-19T01:06:01;99187.22;;;1.30;100.00
38718;BME280;24468;52.128;9.278;2023-01-19T01:08:29;99182.66;;;1.35;100.00
38718;BME280;24468;52.128;9.278;2023-01-19T01:10:55;99195.22;;;1.28;100.00
38718;BME280;24468;52.128;9.278;2023-01-19T01:13:21;99187.50;;;1.21;100.00
38718;BME280;24468;52.128;9.278;2023-01-19T01:15:51;99194.53;;;1.22;100.00
38718;BME280;24468;52.128;9.278;2023-01-19T01:18:17;99199.75;;;1.25;100.00
38718;BME280;24468;52.128;9.278;2023-01-19T01:20:42;99198.72;;;1.30;100.00
38718;BME280;24468;52.128;9.278;2023-01-19T01:23:08;99200.38;;;1.35;100.00
38718;BME280;24468;52.128;9.278;2023-01-19T01:25:33;99201.06;;;1.10;100.00
38718;BME280;24468;52.128;9.278;2023-01-19T01:28:05;99198.91;;;1.24;100.00
38718;BME280;24468;52.128;9.278;2023-01-19T01:30:34;99202.72;;;1.14;100.00
38718;BME280;24468;52.128;9.278;2023-01-19T01:33:00;99203.06;;;1.02;100.00
38718;BME280;24468;52.128;9.278;2023-01-19T01:35:26;99208.81;;;1.18;100.00
38718;BME280;24468;52.128;9.278;2023-01-19T01:37:52;99209.03;;;1.10;100.00
38718;BME280;24468;52.128;9.278;2023-01-19T01:40:18;99213.22;;;0.86;100.00
38718;BME280;24468;52.128;9.278;2023-01-19T01:42:44;99207.66;;;0.95;100.00
38718;BME280;24468;52.128;9.278;2023-01-19T01:48:22;99197.78;;;1.00;100.00
38718;BME280;24468;52.128;9.278;2023-01-19T01:51:12;99192.00;;;0.84;100.00
38718;BME280;24468;52.128;9.278;2023-01-19T01:56:41;99184.91;;;0.85;100.00
38718;BME280;24468;52.128;9.278;2023-01-19T02:01:52;99162.56;;;0.94;100.00
38718;BME280;24468;52.128;9.278;2023-01-19T02:04:41;99167.97;;;0.91;100.00
38718;BME280;24468;52.128;9.278;2023-01-19T02:07:11;99164.47;;;0.88;100.00
38718;BME280;24468;52.128;9.278;2023-01-19T02:09:57;99162.50;;;0.95;100.00
38718;BME280;24468;52.128;9.278;2023-01-19T02:12:41;99177.56;;;0.95;100.00
38718;BME280;24468;52.128;9.278;2023-01-19T02:15:25;99176.91;;;0.86;100.00
38718;BME280;24468;52.128;9.278;2023-01-19T02:17:51;99179.31;;;0.96;100.00
38718;BME280;24468;52.128;9.278;2023-01-19T02:20:17;99182.78;;;0.99;100.00
38718;BME280;24468;52.128;9.278;2023-01-19T02:22:50;99196.06;;;1.30;100.00
38718;BME280;24468;52.128;9.278;2023-01-19T02:25:17;99186.22;;;1.01;100.00
38718;BME280;24468;52.128;9.278;2023-01-19T02:27:44;99204.09;;;0.96;100.00
38718;BME280;24468;52.128;9.278;2023-01-19T02:30:11;99202.78;;;1.13;100.00
38718;BME280;24468;52.128;9.278;2023-01-19T02:32:37;99193.34;;;1.01;100.00
38718;BME280;24468;52.128;9.278;2023-01-19T02:35:04;99191.50;;;1.04;100.00
38718;BME280;24468;52.128;9.278;2023-01-19T02:37:32;99190.75;;;0.98;100.00
38718;BME280;24468;52.128;9.278;2023-01-19T02:40:02;99183.63;;;1.00;100.00
38718;BME280;24468;52.128;9.278;2023-01-19T02:42:52;99182.63;;;1.04;100.00
38718;BME280;24468;52.128;9.278;2023-01-19T02:45:21;99176.34;;;1.08;100.00
38718;BME280;24468;52.128;9.278;2023-01-19T02:47:50;99179.06;;;1.05;100.00
38718;BME280;24468;52.128;9.278;2023-01-19T02:50:36;99186.91;;;1.09;100.00
38718;BME280;24468;52.128;9.278;2023-01-19T02:53:37;99187.34;;;1.25;100.00
38718;BME280;24468;52.128;9.278;2023-01-19T02:59:41;99185.81;;;1.48;100.00
38718;BME280;24468;52.128;9.278;2023-01-19T03:11:07;99190.88;;;1.57;100.00
38718;BME280;24468;52.128;9.278;2023-01-19T03:16:38;99185.91;;;1.45;100.00
38718;BME280;24468;52.128;9.278;2023-01-19T03:19:18;99185.50;;;1.88;100.00
38718;BME280;24468;52.128;9.278;2023-01-19T03:21:48;99175.56;;;1.65;100.00
38718;BME280;24468;52.128;9.278;2023-01-19T03:24:18;99176.88;;;1.80;100.00
38718;BME280;24468;52.128;9.278;2023-01-19T03:26:51;99185.38;;;1.91;100.00
38718;BME280;24468;52.128;9.278;2023-01-19T03:29:22;99173.66;;;1.70;100.00
38718;BME280;24468;52.128;9.278;2023-01-19T03:31:51;99175.34;;;1.73;100.00
38718;BME280;24468;52.128;9.278;2023-01-19T03:34:18;99176.09;;;1.76;100.00
38718;BME280;24468;52.128;9.278;2023-01-19T03:36:52;99178.78;;;1.76;100.00
38718;BME280;24468;52.128;9.278;2023-01-19T03:39:22;99172.25;;;1.87;100.00
38718;BME280;24468;52.128;9.278;2023-01-19T03:41:53;99179.22;;;1.91;100.00
38718;BME280;24468;52.128;9.278;2023-01-19T03:44:22;99171.09;;;1.95;100.00
38718;BME280;24468;52.128;9.278;2023-01-19T03:46:48;99169.41;;;1.93;100.00
38718;BME280;24468;52.128;9.278;2023-01-19T03:49:15;99167.41;;;1.99;100.00
38718;BME280;24468;52.128;9.278;2023-01-19T03:51:41;99166.19;;;2.10;100.00
38718;BME280;24468;52.128;9.278;2023-01-19T03:54:09;99164.72;;;2.01;100.00
38718;BME280;24468;52.128;9.278;2023-01-19T03:56:35;99182.16;;;2.10;100.00
38718;BME280;24468;52.128;9.278;2023-01-19T03:59:01;99179.19;;;2.19;100.00
38718;BME280;24468;52.128;9.278;2023-01-19T04:01:29;99177.31;;;1.94;100.00
38718;BME280;24468;52.128;9.278;2023-01-19T04:03:55;99172.03;;;2.21;100.00
38718;BME280;24468;52.128;9.278;2023-01-19T04:06:20;99182.13;;;2.11;100.00
38718;BME280;24468;52.128;9.278;2023-01-19T04:08:48;99173.63;;;2.27;100.00
38718;BME280;24468;52.128;9.278;2023-01-19T04:11:14;99178.75;;;2.33;100.00
38718;BME280;24468;52.128;9.278;2023-01-19T04:13:40;99173.22;;;2.12;100.00
38718;BME280;24468;52.128;9.278;2023-01-19T04:16:06;99172.97;;;2.20;100.00
38718;BME280;24468;52.128;9.278;2023-01-19T04:18:33;99169.88;;;2.34;100.00
38718;BME280;24468;52.128;9.278;2023-01-19T04:20:59;99163.47;;;2.39;100.00
38718;BME280;24468;52.128;9.278;2023-01-19T04:23:26;99172.41;;;2.37;100.00
38718;BME280;24468;52.128;9.278;2023-01-19T04:26:03;99171.19;;;2.47;100.00
38718;BME280;24468;52.128;9.278;2023-01-19T04:28:29;99172.97;;;2.47;100.00
38718;BME280;24468;52.128;9.278;2023-01-19T04:30:55;99165.56;;;2.56;100.00
38718;BME280;24468;52.128;9.278;2023-01-19T04:33:21;99166.16;;;2.38;100.00
38718;BME280;24468;52.128;9.278;2023-01-19T04:35:49;99161.56;;;2.70;100.00
38718;BME280;24468;52.128;9.278;2023-01-19T04:38:15;99163.72;;;2.58;100.00
38718;BME280;24468;52.128;9.278;2023-01-19T04:40:41;99156.38;;;2.65;100.00
38718;BME280;24468;52.128;9.278;2023-01-19T04:43:07;99166.28;;;2.86;100.00
38718;BME280;24468;52.128;9.278;2023-01-19T04:45:33;99161.97;;;2.57;100.00
38718;BME280;24468;52.128;9.278;2023-01-19T04:47:58;99165.53;;;2.83;100.00
38718;BME280;24468;52.128;9.278;2023-01-19T04:50:24;99153.31;;;3.02;100.00
38718;BME280;24468;52.128;9.278;2023-01-19T04:52:50;99160.97;;;3.11;100.00
38718;BME280;24468;52.128;9.278;2023-01-19T04:55:16;99158.41;;;3.08;100.00
38718;BME280;24468;52.128;9.278;2023-01-19T04:57:42;99157.53;;;3.08;100.00
38718;BME280;24468;52.128;9.278;2023-01-19T05:00:09;99146.66;;;3.14;100.00
38718;BME280;24468;52.128;9.278;2023-01-19T05:02:35;99146.63;;;3.16;100.00
38718;BME280;24468;52.128;9.278;2023-01-19T05:05:01;99144.97;;;3.11;100.00
38718;BME280;24468;52.128;9.278;2023-01-19T05:07:27;99149.34;;;2.89;100.00
38718;BME280;24468;52.128;9.278;2023-01-19T05:09:53;99151.94;;;2.90;100.00
38718;BME280;24468;52.128;9.278;2023-01-19T05:12:19;99145.41;;;3.24;100.00
38718;BME280;24468;52.128;9.278;2023-01-19T05:14:44;99142.78;;;3.23;100.00
38718;BME280;24468;52.128;9.278;2023-01-19T05:17:10;99157.25;;;2.65;100.00
38718;BME280;24468;52.128;9.278;2023-01-19T05:19:36;99151.13;;;2.63;100.00
38718;BME280;24468;52.128;9.278;2023-01-19T05:22:03;99142.13;;;2.66;100.00
38718;BME280;24468;52.128;9.278;2023-01-19T05:24:29;99155.28;;;2.71;100.00
38718;BME280;24468;52.128;9.278;2023-01-19T05:26:55;99157.66;;;2.80;100.00
38718;BME280;24468;52.128;9.278;2023-01-19T05:29:20;99157.78;;;3.02;100.00
38718;BME280;24468;52.128;9.278;2023-01-19T05:31:46;99154.16;;;2.78;100.00
38718;BME280;24468;52.128;9.278;2023-01-19T05:34:12;99157.47;;;2.59;100.00
38718;BME280;24468;52.128;9.278;2023-01-19T05:36:39;99153.72;;;2.65;100.00
38718;BME280;24468;52.128;9.278;2023-01-19T05:39:05;99156.28;;;2.93;100.00
38718;BME280;24468;52.128;9.278;2023-01-19T05:41:30;99153.78;;;2.63;100.00
38718;BME280;24468;52.128;9.278;2023-01-19T05:43:56;99162.91;;;2.56;100.00
38718;BME280;24468;52.128;9.278;2023-01-19T05:46:22;99159.38;;;2.56;100.00
38718;BME280;24468;52.128;9.278;2023-01-19T05:48:48;99155.41;;;2.67;100.00
38718;BME280;24468;52.128;9.278;2023-01-19T05:51:14;99157.06;;;2.72;100.00
38718;BME280;24468;52.128;9.278;2023-01-19T05:53:40;99157.69;;;2.53;100.00
38718;BME280;24468;52.128;9.278;2023-01-19T05:56:08;99168.06;;;2.61;100.00
38718;BME280;24468;52.128;9.278;2023-01-19T05:58:38;99159.16;;;2.87;100.00
38718;BME280;24468;52.128;9.278;2023-01-19T06:01:06;99169.81;;;2.62;100.00
38718;BME280;24468;52.128;9.278;2023-01-19T06:03:33;99167.50;;;2.78;100.00
38718;BME280;24468;52.128;9.278;2023-01-19T06:06:00;99163.13;;;2.75;100.00
38718;BME280;24468;52.128;9.278;2023-01-19T06:08:27;99163.25;;;2.72;100.00
38718;BME280;24468;52.128;9.278;2023-01-19T06:10:52;99173.31;;;2.89;100.00
38718;BME280;24468;52.128;9.278;2023-01-19T06:13:18;99164.00;;;2.76;100.00
38718;BME280;24468;52.128;9.278;2023-01-19T06:15:44;99162.56;;;2.65;100.00
38718;BME280;24468;52.128;9.278;2023-01-19T06:18:11;99162.41;;;2.70;100.00
38718;BME280;24468;52.128;9.278;2023-01-19T06:20:37;99159.44;;;2.79;100.00
38718;BME280;24468;52.128;9.278;2023-01-19T06:23:03;99159.38;;;2.81;100.00
38718;BME280;24468;52.128;9.278;2023-01-19T06:25:29;99156.75;;;2.54;100.00
38718;BME280;24468;52.128;9.278;2023-01-19T06:27:54;99154.91;;;2.56;100.00
38718;BME280;24468;52.128;9.278;2023-01-19T06:30:20;99158.69;;;2.76;100.00
38718;BME280;24468;52.128;9.278;2023-01-19T06:32:46;99153.94;;;2.84;100.00
38718;BME280;24468;52.128;9.278;2023-01-19T06:35:12;99161.56;;;2.95;100.00
38718;BME280;24468;52.128;9.278;2023-01-19T06:37:38;99167.38;;;2.81;100.00
38718;BME280;24468;52.128;9.278;2023-01-19T06:40:05;99160.31;;;3.05;100.00
38718;BME280;24468;52.128;9.278;2023-01-19T06:42:31;99162.91;;;2.81;100.00
38718;BME280;24468;52.128;9.278;2023-01-19T06:44:56;99170.53;;;3.17;100.00
38718;BME280;24468;52.128;9.278;2023-01-19T06:47:22;99169.94;;;3.09;100.00
38718;BME280;24468;52.128;9.278;2023-01-19T06:49:48;99163.38;;;2.94;100.00
38718;BME280;24468;52.128;9.278;2023-01-19T06:52:14;99174.34;;;3.10;100.00
38718;BME280;24468;52.128;9.278;2023-01-19T06:54:44;99164.97;;;2.98;100.00
38718;BME280;24468;52.128;9.278;2023-01-19T06:57:10;99171.41;;;2.93;100.00
38718;BME280;24468;52.128;9.278;2023-01-19T06:59:37;99183.69;;;2.97;100.00
38718;BME280;24468;52.128;9.278;2023-01-19T07:02:03;99180.09;;;3.23;100.00
38718;BME280;24468;52.128;9.278;2023-01-19T07:04:28;99185.28;;;2.77;100.00
38718;BME280;24468;52.128;9.278;2023-01-19T07:06:54;99186.41;;;2.95;100.00
38718;BME280;24468;52.128;9.278;2023-01-19T07:09:20;99182.50;;;2.80;100.00
38718;BME280;24468;52.128;9.278;2023-01-19T07:11:46;99187.59;;;2.86;100.00
38718;BME280;24468;52.128;9.278;2023-01-19T07:14:12;99192.22;;;3.06;100.00
38718;BME280;24468;52.128;9.278;2023-01-19T07:16:38;99184.19;;;2.83;100.00
38718;BME280;24468;52.128;9.278;2023-01-19T07:19:04;99198.22;;;3.13;100.00
38718;BME280;24468;52.128;9.278;2023-01-19T07:21:30;99197.28;;;2.89;100.00
38718;BME280;24468;52.128;9.278;2023-01-19T07:23:55;99211.44;;;2.91;100.00
38718;BME280;24468;52.128;9.278;2023-01-19T07:26:21;99218.81;;;2.83;100.00
38718;BME280;24468;52.128;9.278;2023-01-19T07:28:50;99211.53;;;3.13;100.00
38718;BME280;24468;52.128;9.278;2023-01-19T07:31:16;99209.78;;;2.87;100.00
38718;BME280;24468;52.128;9.278;2023-01-19T07:33:42;99209.16;;;2.79;100.00
38718;BME280;24468;52.128;9.278;2023-01-19T07:36:08;99220.13;;;2.70;100.00
38718;BME280;24468;52.128;9.278;2023-01-19T07:38:34;99215.31;;;2.81;100.00
38718;BME280;24468;52.128;9.278;2023-01-19T07:41:06;99224.03;;;3.11;100.00
38718;BME280;24468;52.128;9.278;2023-01-19T07:43:32;99231.22;;;2.82;100.00
38718;BME280;24468;52.128;9.278;2023-01-19T07:45:59;99217.22;;;2.77;100.00
38718;BME280;24468;52.128;9.278;2023-01-19T07:48:25;99228.88;;;3.00;100.00
38718;BME280;24468;52.128;9.278;2023-01-19T07:50:51;99223.66;;;2.70;100.00
38718;BME280;24468;52.128;9.278;2023-01-19T07:53:17;99236.72;;;2.78;100.00
38718;BME280;24468;52.128;9.278;2023-01-19T07:55:43;99235.66;;;2.57;100.00
38718;BME280;24468;52.128;9.278;2023-01-19T07:58:08;99240.69;;;2.38;100.00
38718;BME280;24468;52.128;9.278;2023-01-19T08:00:36;99247.81;;;2.09;100.00
38718;BME280;24468;52.128;9.278;2023-01-19T08:03:03;99235.88;;;2.49;100.00
38718;BME280;24468;52.128;9.278;2023-01-19T08:05:33;99238.38;;;2.55;100.00
38718;BME280;24468;52.128;9.278;2023-01-19T08:07:58;99242.25;;;2.45;100.00
38718;BME280;24468;52.128;9.278;2023-01-19T08:10:26;99243.59;;;2.30;100.00
38718;BME280;24468;52.128;9.278;2023-01-19T08:12:53;99242.94;;;2.23;100.00
38718;BME280;24468;52.128;9.278;2023-01-19T08:15:19;99252.25;;;2.09;100.00
38718;BME280;24468;52.128;9.278;2023-01-19T08:17:57;99250.25;;;1.87;100.00
38718;BME280;24468;52.128;9.278;2023-01-19T08:20:24;99262.75;;;2.13;100.00
38718;BME280;24468;52.128;9.278;2023-01-19T08:22:50;99266.50;;;1.76;100.00
38718;BME280;24468;52.128;9.278;2023-01-19T08:25:15;99262.19;;;2.02;100.00
38718;BME280;24468;52.128;9.278;2023-01-19T08:27:41;99276.56;;;1.96;100.00
38718;BME280;24468;52.128;9.278;2023-01-19T08:30:07;99268.03;;;1.85;100.00
38718;BME280;24468;52.128;9.278;2023-01-19T08:32:33;99275.47;;;1.72;100.00
38718;BME280;24468;52.128;9.278;2023-01-19T08:34:58;99267.16;;;1.53;100.00
38718;BME280;24468;52.128;9.278;2023-01-19T08:37:24;99283.03;;;1.88;100.00
38718;BME280;24468;52.128;9.278;2023-01-19T08:39:50;99272.97;;;1.68;100.00
38718;BME280;24468;52.128;9.278;2023-01-19T08:42:17;99278.53;;;1.90;100.00
38718;BME280;24468;52.128;9.278;2023-01-19T08:44:43;99271.47;;;1.58;100.00
38718;BME280;24468;52.128;9.278;2023-01-19T08:47:08;99274.03;;;1.62;100.00
38718;BME280;24468;52.128;9.278;2023-01-19T08:49:34;99287.72;;;1.78;100.00
38718;BME280;24468;52.128;9.278;2023-01-19T08:51:59;99291.34;;;1.75;100.00
38718;BME280;24468;52.128;9.278;2023-01-19T08:54:27;99292.00;;;1.84;100.00
38718;BME280;24468;52.128;9.278;2023-01-19T08:56:53;99298.19;;;2.14;100.00
38718;BME280;24468;52.128;9.278;2023-01-19T08:59:18;99291.38;;;2.05;100.00
38718;BME280;24468;52.128;9.278;2023-01-19T09:01:44;99297.28;;;2.15;100.00
38718;BME280;24468;52.128;9.278;2023-01-19T09:04:09;99300.31;;;2.03;100.00
38718;BME280;24468;52.128;9.278;2023-01-19T09:06:35;99299.66;;;1.65;100.00
38718;BME280;24468;52.128;9.278;2023-01-19T09:09:00;99293.59;;;2.20;100.00
38718;BME280;24468;52.128;9.278;2023-01-19T09:11:26;99306.06;;;2.18;100.00
38718;BME280;24468;52.128;9.278;2023-01-19T09:13:51;99304.31;;;2.17;100.00
38718;BME280;24468;52.128;9.278;2023-01-19T09:16:17;99312.09;;;2.23;100.00
38718;BME280;24468;52.128;9.278;2023-01-19T09:18:42;99312.31;;;2.17;100.00
38718;BME280;24468;52.128;9.278;2023-01-19T09:21:10;99315.41;;;2.32;100.00
38718;BME280;24468;52.128;9.278;2023-01-19T09:23:35;99314.25;;;2.11;100.00
38718;BME280;24468;52.128;9.278;2023-01-19T09:26:03;99324.44;;;1.96;100.00
38718;BME280;24468;52.128;9.278;2023-01-19T09:28:28;99324.78;;;2.15;100.00
38718;BME280;24468;52.128;9.278;2023-01-19T09:30:54;99331.81;;;2.16;100.00
38718;BME280;24468;52.128;9.278;2023-01-19T09:33:20;99324.53;;;2.23;100.00
38718;BME280;24468;52.128;9.278;2023-01-19T09:35:47;99343.31;;;2.18;100.00
38718;BME280;24468;52.128;9.278;2023-01-19T09:38:15;99343.53;;;2.40;100.00
38718;BME280;24468;52.128;9.278;2023-01-19T09:40:52;99347.25;;;2.35;100.00
38718;BME280;24468;52.128;9.278;2023-01-19T09:43:34;99353.63;;;2.59;100.00
38718;BME280;24468;52.128;9.278;2023-01-19T09:46:11;99354.75;;;2.80;100.00
38718;BME280;24468;52.128;9.278;2023-01-19T09:48:56;99350.22;;;2.82;100.00
38718;BME280;24468;52.128;9.278;2023-01-19T09:51:30;99362.53;;;2.58;100.00
38718;BME280;24468;52.128;9.278;2023-01-19T09:54:19;99355.78;;;2.74;100.00
38718;BME280;24468;52.128;9.278;2023-01-19T09:56:48;99350.06;;;2.88;100.00
38718;BME280;24468;52.128;9.278;2023-01-19T09:59:24;99357.16;;;3.16;100.00
38718;BME280;24468;52.128;9.278;2023-01-19T10:02:18;99372.31;;;3.14;100.00
38718;BME280;24468;52.128;9.278;2023-01-19T10:08:03;99372.34;;;3.39;100.00
38718;BME280;24468;52.128;9.278;2023-01-19T10:10:35;99377.78;;;3.36;100.00
38718;BME280;24468;52.128;9.278;2023-01-19T10:19:32;99381.31;;;3.36;100.00
38718;BME280;24468;52.128;9.278;2023-01-19T10:22:17;99387.31;;;3.43;100.00
38718;BME280;24468;52.128;9.278;2023-01-19T10:24:45;99385.78;;;3.62;100.00
38718;BME280;24468;52.128;9.278;2023-01-19T10:27:17;99378.25;;;3.48;100.00
38718;BME280;24468;52.128;9.278;2023-01-19T10:29:44;99374.44;;;3.55;100.00
38718;BME280;24468;52.128;9.278;2023-01-19T10:32:17;99375.75;;;3.69;100.00
38718;BME280;24468;52.128;9.278;2023-01-19T10:34:48;99371.00;;;3.78;100.00
38718;BME280;24468;52.128;9.278;2023-01-19T10:37:31;99385.00;;;3.59;100.00
38718;BME280;24468;52.128;9.278;2023-01-19T10:42:35;99387.91;;;3.51;100.00
38718;BME280;24468;52.128;9.278;2023-01-19T10:45:03;99393.94;;;3.58;100.00
38718;BME280;24468;52.128;9.278;2023-01-19T10:47:33;99390.44;;;3.81;100.00
38718;BME280;24468;52.128;9.278;2023-01-19T10:53:00;99401.38;;;3.73;100.00
38718;BME280;24468;52.128;9.278;2023-01-19T10:55:38;99397.19;;;3.92;100.00
38718;BME280;24468;52.128;9.278;2023-01-19T10:58:06;99398.44;;;4.06;100.00
38718;BME280;24468;52.128;9.278;2023-01-19T11:00:49;99394.28;;;3.98;100.00
38718;BME280;24468;52.128;9.278;2023-01-19T11:03:30;99400.38;;;4.02;100.00
38718;BME280;24468;52.128;9.278;2023-01-19T11:08:44;99402.25;;;4.23;100.00
38718;BME280;24468;52.128;9.278;2023-01-19T11:11:10;99403.94;;;4.26;100.00
38718;BME280;24468;52.128;9.278;2023-01-19T11:13:38;99406.03;;;4.41;100.00
38718;BME280;24468;52.128;9.278;2023-01-19T11:16:26;99397.16;;;4.41;100.00
38718;BME280;24468;52.128;9.278;2023-01-19T11:18:55;99404.41;;;4.37;100.00
38718;BME280;24468;52.128;9.278;2023-01-19T11:21:27;99411.03;;;4.51;100.00
38718;BME280;24468;52.128;9.278;2023-01-19T11:23:59;99409.59;;;4.42;100.00
38718;BME280;24468;52.128;9.278;2023-01-19T11:28:56;99398.00;;;4.66;100.00
38718;BME280;24468;52.128;9.278;2023-01-19T11:31:32;99402.34;;;4.69;100.00
38718;BME280;24468;52.128;9.278;2023-01-19T11:34:20;99409.69;;;4.62;100.00
38718;BME280;24468;52.128;9.278;2023-01-19T11:36:57;99410.59;;;4.39;100.00
38718;BME280;24468;52.128;9.278;2023-01-19T11:39:25;99409.78;;;4.61;100.00
38718;BME280;24468;52.128;9.278;2023-01-19T11:42:03;99405.25;;;4.39;100.00
38718;BME280;24468;52.128;9.278;2023-01-19T11:44:33;99405.72;;;3.77;100.00
38718;BME280;24468;52.128;9.278;2023-01-19T11:47:10;99404.06;;;4.23;100.00
38718;BME280;24468;52.128;9.278;2023-01-19T11:50:03;99414.69;;;3.99;100.00
38718;BME280;24468;52.128;9.278;2023-01-19T11:53:32;99419.22;;;4.22;100.00
38718;BME280;24468;52.128;9.278;2023-01-19T11:58:17;99424.28;;;4.05;100.00
38718;BME280;24468;52.128;9.278;2023-01-19T12:03:41;99438.72;;;3.99;100.00
38718;BME280;24468;52.128;9.278;2023-01-19T12:08:45;99449.09;;;3.55;100.00
38718;BME280;24468;52.128;9.278;2023-01-19T12:11:18;99441.56;;;3.42;100.00
38718;BME280;24468;52.128;9.278;2023-01-19T12:13:45;99435.56;;;3.62;100.00
38718;BME280;24468;52.128;9.278;2023-01-19T12:16:23;99433.94;;;3.58;100.00
38718;BME280;24468;52.128;9.278;2023-01-19T12:18:59;99439.34;;;3.81;100.00
38718;BME280;24468;52.128;9.278;2023-01-19T12:21:25;99438.69;;;3.48;100.00
38718;BME280;24468;52.128;9.278;2023-01-19T12:24:19;99441.28;;;2.95;100.00
38718;BME280;24468;52.128;9.278;2023-01-19T12:26:56;99444.53;;;3.59;100.00
38718;BME280;24468;52.128;9.278;2023-01-19T12:29:28;99454.66;;;3.76;100.00
38718;BME280;24468;52.128;9.278;2023-01-19T12:34:43;99451.56;;;3.62;100.00
38718;BME280;24468;52.128;9.278;2023-01-19T12:39:52;99452.38;;;3.90;100.00
38718;BME280;24468;52.128;9.278;2023-01-19T12:42:19;99453.81;;;4.00;100.00
38718;BME280;24468;52.128;9.278;2023-01-19T12:44:46;99456.50;;;3.74;100.00
38718;BME280;24468;52.128;9.278;2023-01-19T12:52:40;99458.44;;;4.20;100.00
38718;BME280;24468;52.128;9.278;2023-01-19T12:57:52;99460.56;;;4.59;100.00
38718;BME280;24468;52.128;9.278;2023-01-19T13:13:35;99486.25;;;4.38;100.00
38718;BME280;24468;52.128;9.278;2023-01-19T13:19:15;99485.16;;;4.44;100.00
38718;BME280;24468;52.128;9.278;2023-01-19T13:21:46;99492.91;;;4.27;100.00
38718;BME280;24468;52.128;9.278;2023-01-19T13:24:19;99487.34;;;4.33;100.00
38718;BME280;24468;52.128;9.278;2023-01-19T13:29:36;99488.91;;;4.63;100.00
38718;BME280;24468;52.128;9.278;2023-01-19T13:32:13;99498.25;;;4.52;100.00
38718;BME280;24468;52.128;9.278;2023-01-19T13:37:21;99501.59;;;4.58;100.00
38718;BME280;24468;52.128;9.278;2023-01-19T13:39:50;99498.97;;;4.57;100.00
38718;BME280;24468;52.128;9.278;2023-01-19T13:42:36;99495.91;;;4.42;100.00
38718;BME280;24468;52.128;9.278;2023-01-19T13:47:58;99491.00;;;4.55;100.00
38718;BME280;24468;52.128;9.278;2023-01-19T13:50:32;99500.59;;;4.61;100.00
38718;BME280;24468;52.128;9.278;2023-01-19T13:52:58;99507.31;;;4.71;100.00
38718;BME280;24468;52.128;9.278;2023-01-19T13:55:30;99507.91;;;4.56;100.00
38718;BME280;24468;52.128;9.278;2023-01-19T13:57:56;99521.31;;;4.29;100.00
38718;BME280;24468;52.128;9.278;2023-01-19T14:00:28;99518.31;;;4.38;100.00
38718;BME280;24468;52.128;9.278;2023-01-19T14:05:36;99526.31;;;4.38;100.00
38718;BME280;24468;52.128;9.278;2023-01-19T14:10:44;99539.22;;;4.00;100.00
38718;BME280;24468;52.128;9.278;2023-01-19T14:13:18;99539.28;;;3.97;100.00
38718;BME280;24468;52.128;9.278;2023-01-19T14:15:47;99555.16;;;4.02;100.00
38718;BME280;24468;52.128;9.278;2023-01-19T14:20:39;99546.66;;;4.17;100.00
38718;BME280;24468;52.128;9.278;2023-01-19T14:23:28;99557.00;;;4.27;100.00
38718;BME280;24468;52.128;9.278;2023-01-19T14:25:51;99559.03;;;4.45;100.00
38718;BME280;24468;52.128;9.278;2023-01-19T14:28:35;99558.44;;;4.62;100.00
38718;BME280;24468;52.128;9.278;2023-01-19T14:31:20;99566.34;;;5.13;100.00
38718;BME280;24468;52.128;9.278;2023-01-19T14:33:50;99564.94;;;5.03;100.00
38718;BME280;24468;52.128;9.278;2023-01-19T14:36:24;99574.41;;;5.12;100.00
38718;BME280;24468;52.128;9.278;2023-01-19T14:38:51;99579.44;;;4.96;100.00
38718;BME280;24468;52.128;9.278;2023-01-19T14:44:35;99582.69;;;4.81;100.00
38718;BME280;24468;52.128;9.278;2023-01-19T14:47:03;99585.25;;;4.34;100.00
38718;BME280;24468;52.128;9.278;2023-01-19T14:49:37;99584.81;;;4.19;100.00
38718;BME280;24468;52.128;9.278;2023-01-19T14:52:33;99589.44;;;3.88;100.00